Weather reports worldwide

Advertisment
Kinbrace, United Kingdom (99016): temperature & dewpoint: 04.07.2020 04:00:00 - 10.07.2020 04:00:00 (BST)Kinbrace, United Kingdom (99016): wind speed & gusts: 04.07.2020 04:00:00 - 10.07.2020 04:00:00 (BST)Kinbrace, United Kingdom (99016): wind direction: 04.07.2020 04:00:00 - 10.07.2020 04:00:00 (BST)Kinbrace, United Kingdom (99016): precipitation: 04.07.2020 04:00:00 - 10.07.2020 04:00:00 (BST)
Date & Time tt [°C] td [°C] ff [km/h] ff [kn] fx [km/h] fx [kn] dd rr [mm]
10.07.2020 04:00:00 5,0 4,7 2 1 - - ESE -
10.07.2020 03:00:00 5,2 4,8 5 3 - - E 0,0
10.07.2020 02:00:00 5,6 4,6 2 1 - - E 0,0
10.07.2020 01:00:00 7,2 5,5 4 2 - - N 0,0
10.07.2020 00:00:00 9,0 7,3 0 0 - - N 0,0
09.07.2020 23:00:00 9,6 7,1 2 1 - - N 0,0
09.07.2020 22:00:00 10,6 7,2 8 4 - - N 0,0
09.07.2020 21:00:00 11,7 6,6 8 4 - - NNE 0,0
09.07.2020 20:00:00 12,3 8,4 5 3 - - NE 0,0
09.07.2020 19:00:00 12,8 7,0 11 6 - - N 0,0
09.07.2020 18:00:00 13,5 7,2 15 8 - - N 0,0
09.07.2020 17:00:00 15,2 8,0 21 11 - - NNW 0,0
09.07.2020 16:00:00 14,6 7,0 9 5 - - N 0,0
09.07.2020 15:00:00 14,2 7,7 22 12 - - N 0,0
09.07.2020 14:00:00 16,2 8,9 13 7 - - NNE 0,0
09.07.2020 13:00:00 13,8 9,0 15 8 - - N 0,0
09.07.2020 12:00:00 15,0 8,1 11 6 - - NNE 0,0
09.07.2020 11:00:00 15,4 7,7 8 4 - - N 0,0
09.07.2020 10:00:00 13,7 7,2 8 4 - - N 0,0
09.07.2020 09:00:00 12,3 8,4 4 2 - - NW 0,0
09.07.2020 08:00:00 9,0 8,1 4 2 - - SW 0,2
09.07.2020 07:00:00 7,5 7,0 2 1 - - ESE 0,0
09.07.2020 06:00:00 6,1 5,8 2 1 - - SE 0,0
09.07.2020 05:00:00 5,1 4,9 2 1 - - WNW 0,0
09.07.2020 04:00:00 4,5 4,2 0 0 - - N 0,0
09.07.2020 03:00:00 3,8 3,4 2 1 - - N 0,0
09.07.2020 02:00:00 4,0 3,4 2 1 - - SSE 0,0
09.07.2020 01:00:00 5,5 4,3 2 1 - - ESE 0,0
09.07.2020 00:00:00 7,8 5,5 2 1 - - SSE 0,0
08.07.2020 23:00:00 8,5 5,7 8 4 - - ESE 0,0
08.07.2020 22:00:00 9,6 6,0 11 6 - - E 0,0
08.07.2020 21:00:00 10,8 5,9 11 6 - - SE 0,0
08.07.2020 20:00:00 12,2 6,5 18 10 - - SSE 0,0
08.07.2020 19:00:00 12,6 7,0 21 11 - - SSE 0,0
08.07.2020 18:00:00 12,1 5,7 16 9 - - SE 0,0
08.07.2020 17:00:00 13,4 5,6 9 5 - - ESE 0,0
08.07.2020 16:00:00 13,4 5,7 9 5 - - SE 0,0
08.07.2020 15:00:00 14,3 5,4 4 2 - - WNW 0,0
08.07.2020 14:00:00 14,0 3,1 4 2 - - N 0,0
08.07.2020 13:00:00 13,8 5,0 5 3 - - NE 0,0
08.07.2020 12:00:00 13,1 5,6 11 6 - - NNW 0,0
08.07.2020 11:00:00 12,4 4,6 9 5 - - NNW 0,0
08.07.2020 10:00:00 12,1 5,4 5 3 - - NE 0,0
08.07.2020 09:00:00 10,1 7,1 4 2 - - N 0,0
08.07.2020 08:00:00 8,4 8,3 2 1 - - SE 0,0
08.07.2020 07:00:00 3,2 3,1 4 2 - - ESE 0,0
08.07.2020 06:00:00 -0,1 -0,3 2 1 - - S 0,0
08.07.2020 05:00:00 -0,3 -0,6 4 2 - - S 0,0
08.07.2020 04:00:00 0,1 -0,2 5 3 - - SE 0,0
08.07.2020 03:00:00 1,2 1,0 2 1 - - SE 0,0
08.07.2020 02:00:00 2,1 1,8 4 2 - - SSE 0,0
08.07.2020 01:00:00 2,5 2,1 2 1 - - SE 0,0
08.07.2020 00:00:00 2,8 2,0 0 0 - - N 0,0
07.07.2020 23:00:00 3,4 0,9 8 4 - - N 0,0
07.07.2020 22:00:00 8,2 4,0 2 1 - - NNW 0,0
07.07.2020 21:00:00 10,7 5,1 15 8 - - N 0,0
07.07.2020 20:00:00 11,1 5,4 18 10 - - NNW 0,0
07.07.2020 19:00:00 11,4 5,5 16 9 - - N 0,0
07.07.2020 18:00:00 12,3 6,1 15 8 - - N 0,0
07.07.2020 17:00:00 12,1 5,3 16 9 - - NNW 0,0
07.07.2020 16:00:00 12,6 6,2 18 10 - - NNW 0,0
07.07.2020 15:00:00 12,7 6,4 22 12 - - N 0,0
07.07.2020 14:00:00 12,7 7,1 22 12 - - NNW 0,0
07.07.2020 13:00:00 12,5 5,9 21 11 - - NNW 0,0
07.07.2020 12:00:00 11,8 6,8 18 10 - - NNW 0,0
07.07.2020 11:00:00 10,9 6,7 18 10 - - NNW 0,0
07.07.2020 10:00:00 10,5 6,5 18 10 - - NNW 0,0
07.07.2020 09:00:00 10,9 6,6 26 14 - - NNW 0,0
07.07.2020 08:00:00 10,6 6,7 16 9 - - NW 0,0
07.07.2020 07:00:00 9,8 7,3 15 8 - - NNW 0,0
07.07.2020 06:00:00 8,6 7,4 9 5 - - NW 0,0
07.07.2020 05:00:00 8,1 7,2 8 4 - - NNW 0,0
07.07.2020 04:00:00 8,1 7,2 5 3 - - N 0,0
07.07.2020 03:00:00 8,3 7,4 13 7 - - NW 0,0
07.07.2020 02:00:00 8,4 7,6 13 7 - - NNW 0,2
07.07.2020 01:00:00 8,5 7,8 9 5 - - NNW 1,0
07.07.2020 00:00:00 8,1 7,5 16 9 - - NW 2,2
06.07.2020 23:00:00 9,8 8,6 21 11 - - WNW 0,0
06.07.2020 22:00:00 10,2 7,8 18 10 - - WNW 0,0
06.07.2020 21:00:00 10,4 7,8 22 12 - - WNW 0,2
06.07.2020 20:00:00 10,6 9,3 16 9 - - WNW 0,2
06.07.2020 19:00:00 10,9 7,5 28 15 - - W 0,0
06.07.2020 18:00:00 12,4 6,7 26 14 - - W 0,0
06.07.2020 17:00:00 11,9 5,8 29 16 - - W 0,0
06.07.2020 16:00:00 12,2 6,9 29 16 52 28 WNW 0,0
06.07.2020 15:00:00 11,8 7,2 31 17 48 26 WNW 0,0
06.07.2020 14:00:00 13,2 8,1 34 18 52 28 WNW 0,0
06.07.2020 13:00:00 10,5 8,3 28 15 46 25 NNW 0,4
06.07.2020 12:00:00 12,2 6,4 28 15 48 26 NNW 0,0
06.07.2020 11:00:00 11,3 6,5 29 16 48 26 NNW 0,0
06.07.2020 10:00:00 10,9 6,4 34 18 52 28 NNW 0,0
06.07.2020 09:00:00 10,0 7,9 29 16 50 27 NNW 0,0
06.07.2020 08:00:00 9,5 7,5 28 15 48 26 NNW 0,0
06.07.2020 07:00:00 9,0 7,5 29 16 - - NW 0,2
06.07.2020 06:00:00 9,2 7,9 28 15 48 26 NNW 0,0
06.07.2020 05:00:00 9,5 8,6 26 14 - - NNW 0,8
06.07.2020 04:00:00 9,9 8,6 28 15 - - NNW 0,4
06.07.2020 03:00:00 10,0 8,9 29 16 - - NNW 0,4
06.07.2020 02:00:00 9,5 8,1 26 14 - - NNW 0,0
06.07.2020 01:00:00 9,3 8,1 21 11 - - NNW 0,6
06.07.2020 00:00:00 9,1 8,3 11 6 - - NW 0,0
05.07.2020 23:00:00 9,0 8,0 15 8 - - NW 0,2
05.07.2020 22:00:00 9,3 8,1 9 5 - - NW 0,0
05.07.2020 21:00:00 10,0 8,3 26 14 - - NW 0,0
05.07.2020 20:00:00 10,3 8,1 22 12 - - NW 0,0
05.07.2020 19:00:00 11,0 7,6 22 12 - - NNW 0,4
05.07.2020 18:00:00 10,2 8,3 22 12 - - NNW 1,0
05.07.2020 17:00:00 13,0 8,9 26 14 - - NW 0,0
05.07.2020 16:00:00 11,9 9,4 18 10 - - NW 0,2
05.07.2020 15:00:00 12,0 9,2 21 11 - - NW 0,0
05.07.2020 14:00:00 12,3 9,2 18 10 - - NNW 0,0
05.07.2020 13:00:00 11,3 7,9 24 13 - - WNW 0,2
05.07.2020 12:00:00 10,3 8,4 18 10 - - NW 0,0
05.07.2020 11:00:00 11,0 7,7 15 8 - - WNW 0,0
05.07.2020 10:00:00 10,7 7,3 18 10 - - W 0,0
05.07.2020 09:00:00 10,3 7,4 18 10 - - W 0,0
05.07.2020 08:00:00 9,8 8,1 18 10 - - WNW 0,0
05.07.2020 07:00:00 9,2 8,3 9 5 - - N 0,0
05.07.2020 06:00:00 9,0 8,2 11 6 - - NNW 0,0
05.07.2020 05:00:00 9,1 8,6 16 9 - - NW 0,2
05.07.2020 04:00:00 9,3 8,9 8 4 - - NNW 1,2
05.07.2020 03:00:00 9,3 9,0 11 6 - - NNW 1,2
05.07.2020 02:00:00 9,1 8,8 9 5 - - N 2,8
05.07.2020 01:00:00 9,3 8,9 8 4 - - N 2,4
05.07.2020 00:00:00 9,5 9,0 2 1 - - S 1,4
04.07.2020 23:00:00 9,6 8,8 4 2 - - NNW 2,2
04.07.2020 22:00:00 10,5 9,0 8 4 - - NNW 0,2
04.07.2020 21:00:00 11,8 8,7 4 2 - - SSW 0,0
04.07.2020 20:00:00 12,6 7,9 9 5 - - SW 0,0
04.07.2020 19:00:00 13,5 8,3 8 4 - - SW 0,0
04.07.2020 18:00:00 13,6 8,0 4 2 - - NW 0,0
04.07.2020 17:00:00 12,9 9,4 13 7 - - NW 0,0
04.07.2020 16:00:00 12,9 10,1 9 5 - - NNW 0,0
04.07.2020 15:00:00 12,6 10,4 5 3 - - N 0,2
04.07.2020 14:00:00 12,9 10,7 13 7 - - SSW 0,0
04.07.2020 13:00:00 11,6 10,5 8 4 - - S 0,4
04.07.2020 12:00:00 12,1 10,4 11 6 - - S 0,6
04.07.2020 11:00:00 11,6 10,2 5 3 - - S 0,6
04.07.2020 10:00:00 10,8 8,4 9 5 - - WSW 0,2
04.07.2020 09:00:00 11,1 8,0 9 5 - - W 0,0
04.07.2020 08:00:00 11,1 8,1 9 5 - - SW 0,0
04.07.2020 07:00:00 10,9 8,1 11 6 - - S 0,0
04.07.2020 06:00:00 9,4 7,7 8 4 - - SSW 0,0
04.07.2020 05:00:00 7,3 6,2 2 1 - - NNW 0,0
04.07.2020 04:00:00 6,5 5,6 5 3 - - SE 0,0

tt = temperature
td = dewpoint
ff = wind speed
fx = gusts
dd = wind direction
rr = precipitation

Next stations